sensor_id;sensor_type;location;lat;lon;timestamp;pressure;altitude;pressure_sealevel;temperature;humidity
19751;BME280;4663;49.120;9.730;2023-04-20T00:01:52;98060.38;;;2.73;80.74
19751;BME280;4663;49.120;9.730;2023-04-20T00:04:18;98061.47;;;2.45;81.48
19751;BME280;4663;49.120;9.730;2023-04-20T00:06:44;98059.47;;;2.22;82.24
19751;BME280;4663;49.120;9.730;2023-04-20T00:09:11;98051.72;;;2.19;81.65
19751;BME280;4663;49.120;9.730;2023-04-20T00:11:37;98051.31;;;2.12;82.73
19751;BME280;4663;49.120;9.730;2023-04-20T00:14:03;98044.53;;;2.21;81.38
19751;BME280;4663;49.120;9.730;2023-04-20T00:16:28;98044.31;;;2.37;81.41
19751;BME280;4663;49.120;9.730;2023-04-20T00:18:54;98033.84;;;2.23;81.01
19751;BME280;4663;49.120;9.730;2023-04-20T00:21:20;98039.88;;;2.12;81.58
19751;BME280;4663;49.120;9.730;2023-04-20T00:23:49;98044.75;;;1.79;83.20
19751;BME280;4663;49.120;9.730;2023-04-20T00:26:15;98042.09;;;1.92;83.34
19751;BME280;4663;49.120;9.730;2023-04-20T00:28:41;98031.19;;;2.10;82.93
19751;BME280;4663;49.120;9.730;2023-04-20T00:31:07;98027.59;;;1.98;82.27
19751;BME280;4663;49.120;9.730;2023-04-20T00:33:32;98025.16;;;1.82;82.23
19751;BME280;4663;49.120;9.730;2023-04-20T00:35:58;98022.72;;;1.79;83.22
19751;BME280;4663;49.120;9.730;2023-04-20T00:38:23;98024.63;;;1.89;83.13
19751;BME280;4663;49.120;9.730;2023-04-20T00:40:48;98017.94;;;1.71;83.23
19751;BME280;4663;49.120;9.730;2023-04-20T00:43:19;98018.50;;;1.89;83.70
19751;BME280;4663;49.120;9.730;2023-04-20T00:45:45;98018.59;;;2.00;82.47
19751;BME280;4663;49.120;9.730;2023-04-20T00:48:11;98014.03;;;1.89;82.50
19751;BME280;4663;49.120;9.730;2023-04-20T00:50:38;98014.44;;;1.70;82.53
19751;BME280;4663;49.120;9.730;2023-04-20T00:53:05;98002.63;;;1.89;82.08
19751;BME280;4663;49.120;9.730;2023-04-20T00:55:32;98010.00;;;1.84;81.85
19751;BME280;4663;49.120;9.730;2023-04-20T00:57:57;97998.13;;;1.50;83.25
19751;BME280;4663;49.120;9.730;2023-04-20T01:00:23;97998.47;;;1.85;82.17
19751;BME280;4663;49.120;9.730;2023-04-20T01:02:49;97995.94;;;1.83;82.77
19751;BME280;4663;49.120;9.730;2023-04-20T01:05:14;97996.06;;;1.82;82.35
19751;BME280;4663;49.120;9.730;2023-04-20T01:07:40;98001.94;;;1.46;83.63
19751;BME280;4663;49.120;9.730;2023-04-20T01:10:06;97993.28;;;1.70;84.07
19751;BME280;4663;49.120;9.730;2023-04-20T01:12:32;97986.91;;;1.60;83.92
19751;BME280;4663;49.120;9.730;2023-04-20T01:14:57;97996.75;;;1.17;85.66
19751;BME280;4663;49.120;9.730;2023-04-20T01:17:22;97989.66;;;1.45;85.10
19751;BME280;4663;49.120;9.730;2023-04-20T01:19:49;97985.56;;;1.67;83.87
19751;BME280;4663;49.120;9.730;2023-04-20T01:22:21;97978.88;;;1.35;85.93
19751;BME280;4663;49.120;9.730;2023-04-20T01:24:47;97987.22;;;1.42;84.99
19751;BME280;4663;49.120;9.730;2023-04-20T01:27:13;97975.81;;;1.55;84.84
19751;BME280;4663;49.120;9.730;2023-04-20T01:29:40;97969.63;;;1.41;84.67
19751;BME280;4663;49.120;9.730;2023-04-20T01:32:06;97964.28;;;1.69;83.50
19751;BME280;4663;49.120;9.730;2023-04-20T01:34:32;97954.13;;;1.88;82.90
19751;BME280;4663;49.120;9.730;2023-04-20T01:36:57;97958.78;;;1.85;81.51
19751;BME280;4663;49.120;9.730;2023-04-20T01:39:23;97957.50;;;1.90;81.60
19751;BME280;4663;49.120;9.730;2023-04-20T01:41:49;97959.31;;;1.90;82.65
19751;BME280;4663;49.120;9.730;2023-04-20T01:44:15;97952.66;;;1.97;83.62
19751;BME280;4663;49.120;9.730;2023-04-20T01:46:40;97957.09;;;2.10;82.08
19751;BME280;4663;49.120;9.730;2023-04-20T01:49:06;97950.13;;;1.83;82.06
19751;BME280;4663;49.120;9.730;2023-04-20T01:51:33;97948.94;;;1.87;81.89
19751;BME280;4663;49.120;9.730;2023-04-20T01:53:59;97949.91;;;1.86;81.46
19751;BME280;4663;49.120;9.730;2023-04-20T01:56:25;97947.38;;;1.97;81.22
19751;BME280;4663;49.120;9.730;2023-04-20T01:58:50;97943.66;;;1.74;81.92
19751;BME280;4663;49.120;9.730;2023-04-20T02:01:15;97944.09;;;1.68;84.04
19751;BME280;4663;49.120;9.730;2023-04-20T02:03:41;97947.03;;;1.63;84.22
19751;BME280;4663;49.120;9.730;2023-04-20T02:06:07;97939.84;;;1.78;83.26
19751;BME280;4663;49.120;9.730;2023-04-20T02:08:32;97951.59;;;1.48;83.85
19751;BME280;4663;49.120;9.730;2023-04-20T02:10:58;97950.22;;;1.42;84.98
19751;BME280;4663;49.120;9.730;2023-04-20T02:13:23;97945.84;;;1.41;84.58
19751;BME280;4663;49.120;9.730;2023-04-20T02:15:48;97944.59;;;1.60;84.34
19751;BME280;4663;49.120;9.730;2023-04-20T02:18:14;97933.28;;;1.45;83.96
19751;BME280;4663;49.120;9.730;2023-04-20T02:20:41;97934.66;;;1.50;83.61
19751;BME280;4663;49.120;9.730;2023-04-20T02:23:07;97934.53;;;1.65;83.05
19751;BME280;4663;49.120;9.730;2023-04-20T02:25:32;97927.78;;;1.48;83.46
19751;BME280;4663;49.120;9.730;2023-04-20T02:27:58;97920.28;;;1.55;83.21
19751;BME280;4663;49.120;9.730;2023-04-20T02:30:23;97914.56;;;1.35;82.65
19751;BME280;4663;49.120;9.730;2023-04-20T02:32:49;97915.66;;;1.05;84.30
19751;BME280;4663;49.120;9.730;2023-04-20T02:35:14;97908.72;;;1.17;83.65
19751;BME280;4663;49.120;9.730;2023-04-20T02:37:41;97918.16;;;0.80;85.06
19751;BME280;4663;49.120;9.730;2023-04-20T02:40:07;97911.03;;;0.68;86.36
19751;BME280;4663;49.120;9.730;2023-04-20T02:42:33;97905.72;;;0.95;85.80
19751;BME280;4663;49.120;9.730;2023-04-20T02:44:58;97900.78;;;1.17;83.51
19751;BME280;4663;49.120;9.730;2023-04-20T02:47:24;97907.84;;;1.16;83.60
19751;BME280;4663;49.120;9.730;2023-04-20T02:49:49;97902.06;;;1.24;82.82
19751;BME280;4663;49.120;9.730;2023-04-20T02:52:14;97895.34;;;0.92;83.99
19751;BME280;4663;49.120;9.730;2023-04-20T02:54:40;97901.03;;;0.86;84.54
19751;BME280;4663;49.120;9.730;2023-04-20T02:57:05;97902.41;;;0.79;84.71
19751;BME280;4663;49.120;9.730;2023-04-20T02:59:31;97894.41;;;1.06;85.10
19751;BME280;4663;49.120;9.730;2023-04-20T03:01:56;97886.16;;;0.98;83.69
19751;BME280;4663;49.120;9.730;2023-04-20T03:04:22;97886.81;;;1.02;83.92
19751;BME280;4663;49.120;9.730;2023-04-20T03:06:48;97884.47;;;0.97;84.13
19751;BME280;4663;49.120;9.730;2023-04-20T03:09:14;97872.00;;;0.99;83.46
19751;BME280;4663;49.120;9.730;2023-04-20T03:11:40;97880.03;;;0.97;82.56
19751;BME280;4663;49.120;9.730;2023-04-20T03:14:05;97881.03;;;0.69;84.07
19751;BME280;4663;49.120;9.730;2023-04-20T03:16:31;97879.09;;;0.71;84.61
19751;BME280;4663;49.120;9.730;2023-04-20T03:18:56;97877.75;;;0.78;83.98
19751;BME280;4663;49.120;9.730;2023-04-20T03:21:22;97877.84;;;0.77;83.33
19751;BME280;4663;49.120;9.730;2023-04-20T03:23:47;97869.84;;;0.78;83.50
19751;BME280;4663;49.120;9.730;2023-04-20T03:26:13;97875.47;;;0.86;83.48
19751;BME280;4663;49.120;9.730;2023-04-20T03:28:40;97867.44;;;0.88;83.30
19751;BME280;4663;49.120;9.730;2023-04-20T03:31:06;97874.63;;;0.58;83.86
19751;BME280;4663;49.120;9.730;2023-04-20T03:33:31;97882.59;;;0.44;85.18
19751;BME280;4663;49.120;9.730;2023-04-20T03:35:57;97883.09;;;0.36;86.12
19751;BME280;4663;49.120;9.730;2023-04-20T03:38:22;97883.09;;;0.64;84.56
19751;BME280;4663;49.120;9.730;2023-04-20T03:40:48;97883.56;;;0.70;84.10
19751;BME280;4663;49.120;9.730;2023-04-20T03:43:13;97879.06;;;0.30;86.90
19751;BME280;4663;49.120;9.730;2023-04-20T03:45:38;97879.25;;;0.27;88.14
19751;BME280;4663;49.120;9.730;2023-04-20T03:48:04;97882.66;;;0.57;86.63
19751;BME280;4663;49.120;9.730;2023-04-20T03:50:30;97879.84;;;0.45;86.97
19751;BME280;4663;49.120;9.730;2023-04-20T03:52:55;97879.84;;;0.45;87.13
19751;BME280;4663;49.120;9.730;2023-04-20T03:55:20;97870.31;;;0.57;86.23
19751;BME280;4663;49.120;9.730;2023-04-20T03:57:46;97865.25;;;0.40;85.72
19751;BME280;4663;49.120;9.730;2023-04-20T04:00:12;97856.25;;;0.57;84.58
19751;BME280;4663;49.120;9.730;2023-04-20T04:02:38;97878.66;;;0.64;85.63
19751;BME280;4663;49.120;9.730;2023-04-20T04:05:04;97877.44;;;0.42;85.80
19751;BME280;4663;49.120;9.730;2023-04-20T04:07:29;97879.06;;;0.30;86.75
19751;BME280;4663;49.120;9.730;2023-04-20T04:09:55;97873.31;;;0.38;87.09
19751;BME280;4663;49.120;9.730;2023-04-20T04:12:20;97866.38;;;0.50;85.70
19751;BME280;4663;49.120;9.730;2023-04-20T04:14:46;97878.53;;;0.11;86.43
19751;BME280;4663;49.120;9.730;2023-04-20T04:17:13;97883.53;;;0.15;87.67
19751;BME280;4663;49.120;9.730;2023-04-20T04:19:38;97882.72;;;0.42;87.54
19751;BME280;4663;49.120;9.730;2023-04-20T04:22:04;97870.41;;;0.28;86.70
19751;BME280;4663;49.120;9.730;2023-04-20T04:24:29;97877.38;;;0.29;88.12
19751;BME280;4663;49.120;9.730;2023-04-20T04:26:56;97868.97;;;0.37;86.90
19751;BME280;4663;49.120;9.730;2023-04-20T04:29:23;97875.03;;;0.10;87.32
19751;BME280;4663;49.120;9.730;2023-04-20T04:31:51;97862.84;;;0.37;87.24
19751;BME280;4663;49.120;9.730;2023-04-20T04:34:16;97861.19;;;0.48;87.02
19751;BME280;4663;49.120;9.730;2023-04-20T04:36:45;97861.84;;;0.52;86.19
19751;BME280;4663;49.120;9.730;2023-04-20T04:39:11;97865.66;;;0.48;86.21
19751;BME280;4663;49.120;9.730;2023-04-20T04:41:39;97858.50;;;0.63;84.53
19751;BME280;4663;49.120;9.730;2023-04-20T04:44:04;97864.25;;;0.42;85.33
19751;BME280;4663;49.120;9.730;2023-04-20T04:46:30;97856.41;;;0.68;84.96
19751;BME280;4663;49.120;9.730;2023-04-20T04:48:56;97860.53;;;0.72;85.41
19751;BME280;4663;49.120;9.730;2023-04-20T04:51:25;97862.63;;;0.67;85.75
19751;BME280;4663;49.120;9.730;2023-04-20T04:53:50;97863.09;;;0.87;85.53
19751;BME280;4663;49.120;9.730;2023-04-20T04:56:16;97849.81;;;0.89;84.97
19751;BME280;4663;49.120;9.730;2023-04-20T04:58:43;97851.28;;;0.93;85.15
19751;BME280;4663;49.120;9.730;2023-04-20T05:01:09;97863.81;;;1.30;85.35
19751;BME280;4663;49.120;9.730;2023-04-20T05:03:35;97855.66;;;1.33;84.16
19751;BME280;4663;49.120;9.730;2023-04-20T05:06:00;97855.66;;;1.46;84.11
19751;BME280;4663;49.120;9.730;2023-04-20T05:08:26;97857.47;;;1.45;83.87
19751;BME280;4663;49.120;9.730;2023-04-20T05:10:51;97851.31;;;1.58;83.21
19751;BME280;4663;49.120;9.730;2023-04-20T05:13:16;97856.31;;;1.49;84.13
19751;BME280;4663;49.120;9.730;2023-04-20T05:15:42;97856.38;;;1.61;85.06
19751;BME280;4663;49.120;9.730;2023-04-20T05:18:07;97857.03;;;1.51;84.38
19751;BME280;4663;49.120;9.730;2023-04-20T05:20:33;97863.59;;;1.72;83.95
19751;BME280;4663;49.120;9.730;2023-04-20T05:22:58;97870.34;;;1.76;83.81
19751;BME280;4663;49.120;9.730;2023-04-20T05:25:24;97869.50;;;1.75;83.66
19751;BME280;4663;49.120;9.730;2023-04-20T05:27:49;97872.00;;;1.90;83.32
19751;BME280;4663;49.120;9.730;2023-04-20T05:30:15;97872.63;;;2.07;83.20
19751;BME280;4663;49.120;9.730;2023-04-20T05:32:41;97874.84;;;2.13;83.13
19751;BME280;4663;49.120;9.730;2023-04-20T05:35:06;97869.84;;;2.08;83.40
19751;BME280;4663;49.120;9.730;2023-04-20T05:37:32;97883.63;;;2.00;83.94
19751;BME280;4663;49.120;9.730;2023-04-20T05:39:58;97874.59;;;2.16;83.82
19751;BME280;4663;49.120;9.730;2023-04-20T05:42:23;97872.59;;;2.20;84.11
19751;BME280;4663;49.120;9.730;2023-04-20T05:44:49;97872.69;;;2.42;84.29
19751;BME280;4663;49.120;9.730;2023-04-20T05:47:14;97876.09;;;2.45;83.60
19751;BME280;4663;49.120;9.730;2023-04-20T05:49:40;97860.16;;;2.58;83.38
19751;BME280;4663;49.120;9.730;2023-04-20T05:52:05;97861.06;;;2.45;83.28
19751;BME280;4663;49.120;9.730;2023-04-20T05:54:31;97861.78;;;2.47;83.25
19751;BME280;4663;49.120;9.730;2023-04-20T05:56:56;97862.84;;;2.45;82.93
19751;BME280;4663;49.120;9.730;2023-04-20T05:59:25;97862.06;;;3.04;82.59
19751;BME280;4663;49.120;9.730;2023-04-20T06:01:50;97854.41;;;3.58;81.03
19751;BME280;4663;49.120;9.730;2023-04-20T06:04:16;97852.97;;;3.66;79.27
19751;BME280;4663;49.120;9.730;2023-04-20T06:06:41;97858.75;;;3.82;79.80
19751;BME280;4663;49.120;9.730;2023-04-20T06:09:07;97866.59;;;4.07;79.98
19751;BME280;4663;49.120;9.730;2023-04-20T06:11:32;97851.50;;;4.19;78.08
19751;BME280;4663;49.120;9.730;2023-04-20T06:13:58;97853.78;;;4.68;77.36
19751;BME280;4663;49.120;9.730;2023-04-20T06:16:24;97854.53;;;4.58;76.99
19751;BME280;4663;49.120;9.730;2023-04-20T06:18:49;97845.44;;;4.94;75.84
19751;BME280;4663;49.120;9.730;2023-04-20T06:21:16;97853.91;;;4.99;76.13
19751;BME280;4663;49.120;9.730;2023-04-20T06:23:42;97851.50;;;5.17;75.42
19751;BME280;4663;49.120;9.730;2023-04-20T06:26:08;97852.88;;;5.33;75.78
19751;BME280;4663;49.120;9.730;2023-04-20T06:28:35;97850.34;;;5.31;74.84
19751;BME280;4663;49.120;9.730;2023-04-20T06:31:01;97847.56;;;5.43;74.18
19751;BME280;4663;49.120;9.730;2023-04-20T06:33:27;97846.59;;;5.96;73.95
19751;BME280;4663;49.120;9.730;2023-04-20T06:35:52;97846.44;;;5.35;74.56
19751;BME280;4663;49.120;9.730;2023-04-20T06:38:19;97853.25;;;5.28;75.17
19751;BME280;4663;49.120;9.730;2023-04-20T06:40:45;97851.69;;;6.09;74.75
19751;BME280;4663;49.120;9.730;2023-04-20T06:43:10;97839.66;;;6.25;73.12
19751;BME280;4663;49.120;9.730;2023-04-20T06:45:36;97842.25;;;6.66;72.84
19751;BME280;4663;49.120;9.730;2023-04-20T06:48:02;97832.13;;;6.70;72.31
19751;BME280;4663;49.120;9.730;2023-04-20T06:50:27;97833.47;;;7.33;71.39
19751;BME280;4663;49.120;9.730;2023-04-20T06:52:53;97833.25;;;6.97;71.81
19751;BME280;4663;49.120;9.730;2023-04-20T06:55:18;97834.47;;;7.52;71.91
19751;BME280;4663;49.120;9.730;2023-04-20T06:57:43;97837.59;;;8.13;71.81
19751;BME280;4663;49.120;9.730;2023-04-20T07:00:10;97825.94;;;9.23;69.02
19751;BME280;4663;49.120;9.730;2023-04-20T07:02:42;97832.28;;;9.22;68.46
19751;BME280;4663;49.120;9.730;2023-04-20T07:05:08;97820.16;;;9.36;67.52
19751;BME280;4663;49.120;9.730;2023-04-20T07:07:34;97831.97;;;9.26;68.38
19751;BME280;4663;49.120;9.730;2023-04-20T07:09:59;97805.13;;;9.70;65.25
19751;BME280;4663;49.120;9.730;2023-04-20T07:12:25;97815.41;;;8.49;66.97
19751;BME280;4663;49.120;9.730;2023-04-20T07:14:50;97822.88;;;9.71;68.28
19751;BME280;4663;49.120;9.730;2023-04-20T07:17:15;97810.47;;;9.09;66.29
19751;BME280;4663;49.120;9.730;2023-04-20T07:19:41;97801.91;;;9.58;66.01
19751;BME280;4663;49.120;9.730;2023-04-20T07:22:06;97804.03;;;9.89;65.34
19751;BME280;4663;49.120;9.730;2023-04-20T07:24:32;97814.91;;;9.53;66.25
19751;BME280;4663;49.120;9.730;2023-04-20T07:26:57;97813.34;;;10.12;65.26
19751;BME280;4663;49.120;9.730;2023-04-20T07:29:23;97796.56;;;10.01;64.65
19751;BME280;4663;49.120;9.730;2023-04-20T07:31:48;97812.56;;;9.85;66.35
19751;BME280;4663;49.120;9.730;2023-04-20T07:34:14;97803.38;;;11.64;65.33
19751;BME280;4663;49.120;9.730;2023-04-20T07:36:39;97801.44;;;11.24;64.37
19751;BME280;4663;49.120;9.730;2023-04-20T07:39:05;97795.13;;;10.24;63.50
19751;BME280;4663;49.120;9.730;2023-04-20T07:41:30;97807.81;;;11.23;64.74
19751;BME280;4663;49.120;9.730;2023-04-20T07:43:55;97825.16;;;11.69;66.73
19751;BME280;4663;49.120;9.730;2023-04-20T07:46:21;97806.75;;;11.41;63.21
19751;BME280;4663;49.120;9.730;2023-04-20T07:48:47;97794.38;;;10.73;63.47
19751;BME280;4663;49.120;9.730;2023-04-20T07:51:13;97800.47;;;10.24;63.63
19751;BME280;4663;49.120;9.730;2023-04-20T07:53:38;97808.59;;;9.36;65.52
19751;BME280;4663;49.120;9.730;2023-04-20T07:56:04;97817.16;;;9.66;66.56
19751;BME280;4663;49.120;9.730;2023-04-20T07:58:29;97815.91;;;9.52;66.15
19751;BME280;4663;49.120;9.730;2023-04-20T08:00:54;97827.91;;;10.18;66.37
19751;BME280;4663;49.120;9.730;2023-04-20T08:03:20;97814.97;;;9.96;64.84
19751;BME280;4663;49.120;9.730;2023-04-20T08:05:45;97827.91;;;10.52;66.46
19751;BME280;4663;49.120;9.730;2023-04-20T08:08:11;97814.53;;;10.18;64.81
19751;BME280;4663;49.120;9.730;2023-04-20T08:10:36;97818.84;;;9.14;67.07
19751;BME280;4663;49.120;9.730;2023-04-20T08:13:02;97802.75;;;9.32;66.29
19751;BME280;4663;49.120;9.730;2023-04-20T08:15:28;97813.72;;;9.03;67.80
19751;BME280;4663;49.120;9.730;2023-04-20T08:17:53;97805.28;;;9.34;67.31
19751;BME280;4663;49.120;9.730;2023-04-20T08:20:19;97800.91;;;10.02;66.24
19751;BME280;4663;49.120;9.730;2023-04-20T08:22:44;97804.16;;;9.80;66.39
19751;BME280;4663;49.120;9.730;2023-04-20T08:25:10;97786.44;;;9.87;65.25
19751;BME280;4663;49.120;9.730;2023-04-20T08:27:35;97798.50;;;9.48;66.65
19751;BME280;4663;49.120;9.730;2023-04-20T08:30:01;97790.59;;;8.75;67.01
19751;BME280;4663;49.120;9.730;2023-04-20T08:32:28;97792.31;;;9.03;66.88
19751;BME280;4663;49.120;9.730;2023-04-20T08:34:54;97787.19;;;9.36;65.52
19751;BME280;4663;49.120;9.730;2023-04-20T08:37:19;97793.59;;;9.17;66.46
19751;BME280;4663;49.120;9.730;2023-04-20T08:39:45;97782.09;;;8.80;65.63
19751;BME280;4663;49.120;9.730;2023-04-20T08:42:11;97798.53;;;8.48;67.59
19751;BME280;4663;49.120;9.730;2023-04-20T08:44:36;97804.09;;;8.92;68.20
19751;BME280;4663;49.120;9.730;2023-04-20T08:47:02;97791.84;;;9.26;65.78
19751;BME280;4663;49.120;9.730;2023-04-20T08:49:28;97816.53;;;9.72;67.87
19751;BME280;4663;49.120;9.730;2023-04-20T08:51:54;97799.19;;;9.05;65.69
19751;BME280;4663;49.120;9.730;2023-04-20T08:54:20;97823.28;;;9.85;68.71
19751;BME280;4663;49.120;9.730;2023-04-20T08:56:46;97796.69;;;9.30;67.70
19751;BME280;4663;49.120;9.730;2023-04-20T08:59:12;97790.97;;;9.25;66.73
19751;BME280;4663;49.120;9.730;2023-04-20T09:01:42;97807.28;;;9.14;67.98
19751;BME280;4663;49.120;9.730;2023-04-20T09:04:15;97807.09;;;8.52;67.87
19751;BME280;4663;49.120;9.730;2023-04-20T09:06:45;97802.03;;;8.67;68.60
19751;BME280;4663;49.120;9.730;2023-04-20T09:09:10;97807.50;;;9.02;68.27
19751;BME280;4663;49.120;9.730;2023-04-20T09:11:36;97805.47;;;9.41;69.23
19751;BME280;4663;49.120;9.730;2023-04-20T09:14:10;97800.88;;;8.15;68.66
19751;BME280;4663;49.120;9.730;2023-04-20T09:16:58;97812.81;;;8.76;70.86
19751;BME280;4663;49.120;9.730;2023-04-20T09:19:29;97800.88;;;8.15;70.13
19751;BME280;4663;49.120;9.730;2023-04-20T09:21:57;97805.72;;;8.48;70.63
19751;BME280;4663;49.120;9.730;2023-04-20T09:24:29;97793.63;;;8.07;71.03
19751;BME280;4663;49.120;9.730;2023-04-20T09:26:55;97794.31;;;8.64;69.96
19751;BME280;4663;49.120;9.730;2023-04-20T09:29:22;97801.69;;;7.98;72.08
19751;BME280;4663;49.120;9.730;2023-04-20T09:31:50;97807.22;;;7.86;72.86
19751;BME280;4663;49.120;9.730;2023-04-20T09:34:16;97803.16;;;7.82;72.86
19751;BME280;4663;49.120;9.730;2023-04-20T09:36:48;97802.81;;;8.41;71.51
19751;BME280;4663;49.120;9.730;2023-04-20T09:39:19;97796.56;;;8.51;70.47
19751;BME280;4663;49.120;9.730;2023-04-20T09:41:45;97809.66;;;8.26;72.06
19751;BME280;4663;49.120;9.730;2023-04-20T09:44:12;97808.44;;;8.20;71.09
19751;BME280;4663;49.120;9.730;2023-04-20T09:46:40;97800.38;;;8.02;71.05
19751;BME280;4663;49.120;9.730;2023-04-20T09:49:08;97802.78;;;7.67;73.31
19751;BME280;4663;49.120;9.730;2023-04-20T09:51:36;97796.38;;;7.88;72.38
19751;BME280;4663;49.120;9.730;2023-04-20T09:54:04;97796.84;;;8.29;72.05
19751;BME280;4663;49.120;9.730;2023-04-20T09:56:30;97790.25;;;8.78;71.51
19751;BME280;4663;49.120;9.730;2023-04-20T09:58:57;97793.34;;;8.65;71.16
19751;BME280;4663;49.120;9.730;2023-04-20T10:01:23;97789.25;;;8.25;72.85
19751;BME280;4663;49.120;9.730;2023-04-20T10:03:50;97793.13;;;8.77;72.13
19751;BME280;4663;49.120;9.730;2023-04-20T10:06:19;97790.97;;;8.62;71.61
19751;BME280;4663;49.120;9.730;2023-04-20T10:08:45;97789.59;;;8.58;71.35
19751;BME280;4663;49.120;9.730;2023-04-20T10:11:10;97795.22;;;8.18;71.94
19751;BME280;4663;49.120;9.730;2023-04-20T10:13:36;97783.56;;;8.38;70.67
19751;BME280;4663;49.120;9.730;2023-04-20T10:16:02;97774.47;;;8.48;70.26
19751;BME280;4663;49.120;9.730;2023-04-20T10:18:27;97771.56;;;7.77;72.30
19751;BME280;4663;49.120;9.730;2023-04-20T10:21:13;97770.81;;;8.31;71.65
19751;BME280;4663;49.120;9.730;2023-04-20T10:23:51;97759.88;;;8.43;70.14
19751;BME280;4663;49.120;9.730;2023-04-20T10:26:17;97771.03;;;8.75;71.18
19751;BME280;4663;49.120;9.730;2023-04-20T10:28:42;97759.81;;;9.16;69.16
19751;BME280;4663;49.120;9.730;2023-04-20T10:31:12;97743.28;;;9.20;67.57
19751;BME280;4663;49.120;9.730;2023-04-20T10:33:49;97751.41;;;8.47;69.01
19751;BME280;4663;49.120;9.730;2023-04-20T10:36:27;97733.75;;;8.99;67.96
19751;BME280;4663;49.120;9.730;2023-04-20T10:38:53;97741.59;;;9.19;67.62
19751;BME280;4663;49.120;9.730;2023-04-20T10:41:20;97741.31;;;8.78;67.66
19751;BME280;4663;49.120;9.730;2023-04-20T10:43:45;97744.16;;;8.21;68.72
19751;BME280;4663;49.120;9.730;2023-04-20T10:46:18;97735.97;;;8.59;68.68
19751;BME280;4663;49.120;9.730;2023-04-20T10:48:54;97746.66;;;9.04;68.49
19751;BME280;4663;49.120;9.730;2023-04-20T10:51:20;97726.19;;;9.48;66.09
19751;BME280;4663;49.120;9.730;2023-04-20T10:53:59;97714.72;;;8.76;67.45
19751;BME280;4663;49.120;9.730;2023-04-20T10:56:25;97710.47;;;8.65;67.32
19751;BME280;4663;49.120;9.730;2023-04-20T10:58:51;97708.06;;;9.07;66.48
19751;BME280;4663;49.120;9.730;2023-04-20T11:01:17;97701.66;;;9.26;66.30
19751;BME280;4663;49.120;9.730;2023-04-20T11:03:48;97684.47;;;9.29;64.80
19751;BME280;4663;49.120;9.730;2023-04-20T11:06:15;97699.50;;;9.30;65.88
19751;BME280;4663;49.120;9.730;2023-04-20T11:08:41;97694.00;;;9.05;66.88
19751;BME280;4663;49.120;9.730;2023-04-20T11:11:23;97689.19;;;9.43;65.16
19751;BME280;4663;49.120;9.730;2023-04-20T11:13:52;97674.06;;;8.99;64.39
19751;BME280;4663;49.120;9.730;2023-04-20T11:16:18;97668.72;;;9.26;63.47
19751;BME280;4663;49.120;9.730;2023-04-20T11:18:52;97668.50;;;9.54;64.03
19751;BME280;4663;49.120;9.730;2023-04-20T11:21:18;97665.00;;;9.18;63.35
19751;BME280;4663;49.120;9.730;2023-04-20T11:23:44;97665.81;;;9.54;63.19
19751;BME280;4663;49.120;9.730;2023-04-20T11:26:10;97669.88;;;9.66;63.95
19751;BME280;4663;49.120;9.730;2023-04-20T11:28:36;97664.44;;;9.41;62.69
19751;BME280;4663;49.120;9.730;2023-04-20T11:31:01;97663.41;;;9.42;63.17
19751;BME280;4663;49.120;9.730;2023-04-20T11:33:28;97664.47;;;9.49;63.36
19751;BME280;4663;49.120;9.730;2023-04-20T11:35:55;97646.63;;;9.83;62.76
19751;BME280;4663;49.120;9.730;2023-04-20T11:38:29;97652.81;;;9.84;63.36
19751;BME280;4663;49.120;9.730;2023-04-20T11:40:55;97656.16;;;9.78;63.05
19751;BME280;4663;49.120;9.730;2023-04-20T11:43:21;97643.34;;;9.46;62.66
19751;BME280;4663;49.120;9.730;2023-04-20T11:45:46;97645.25;;;9.19;62.51
19751;BME280;4663;49.120;9.730;2023-04-20T11:48:12;97628.00;;;9.14;61.90
19751;BME280;4663;49.120;9.730;2023-04-20T11:50:37;97639.88;;;9.11;62.58
19751;BME280;4663;49.120;9.730;2023-04-20T11:53:03;97633.53;;;9.20;63.28
19751;BME280;4663;49.120;9.730;2023-04-20T11:55:29;97622.84;;;9.20;62.08
19751;BME280;4663;49.120;9.730;2023-04-20T11:57:55;97635.13;;;9.05;62.02
19751;BME280;4663;49.120;9.730;2023-04-20T12:00:20;97624.53;;;9.21;61.55
19751;BME280;4663;49.120;9.730;2023-04-20T12:02:46;97649.13;;;9.25;61.37
19751;BME280;4663;49.120;9.730;2023-04-20T12:05:11;97614.00;;;9.28;60.02
19751;BME280;4663;49.120;9.730;2023-04-20T12:07:37;97630.31;;;9.60;60.00
19751;BME280;4663;49.120;9.730;2023-04-20T12:10:02;97633.22;;;9.67;60.94
19751;BME280;4663;49.120;9.730;2023-04-20T12:12:29;97636.66;;;9.42;60.48
19751;BME280;4663;49.120;9.730;2023-04-20T12:14:55;97658.63;;;9.19;61.82
19751;BME280;4663;49.120;9.730;2023-04-20T12:17:20;97638.31;;;8.73;61.50
19751;BME280;4663;49.120;9.730;2023-04-20T12:19:45;97664.59;;;8.86;61.82
19751;BME280;4663;49.120;9.730;2023-04-20T12:22:11;97663.63;;;8.88;62.86
19751;BME280;4663;49.120;9.730;2023-04-20T12:24:37;97675.34;;;9.13;63.66
19751;BME280;4663;49.120;9.730;2023-04-20T12:27:02;97695.78;;;9.22;65.16
19751;BME280;4663;49.120;9.730;2023-04-20T12:29:30;97679.72;;;8.96;64.86
19751;BME280;4663;49.120;9.730;2023-04-20T12:31:57;97649.78;;;8.66;63.25
19751;BME280;4663;49.120;9.730;2023-04-20T12:34:22;97651.22;;;8.86;62.53
19751;BME280;4663;49.120;9.730;2023-04-20T12:36:48;97680.00;;;8.84;65.12
19751;BME280;4663;49.120;9.730;2023-04-20T12:39:13;97694.63;;;8.98;66.16
19751;BME280;4663;49.120;9.730;2023-04-20T12:41:39;97656.22;;;8.55;63.52
19751;BME280;4663;49.120;9.730;2023-04-20T12:44:05;97660.63;;;8.64;64.15
19751;BME280;4663;49.120;9.730;2023-04-20T12:46:30;97680.41;;;8.98;65.20
19751;BME280;4663;49.120;9.730;2023-04-20T12:48:56;97670.31;;;9.10;65.30
19751;BME280;4663;49.120;9.730;2023-04-20T12:51:21;97682.22;;;9.16;66.42
19751;BME280;4663;49.120;9.730;2023-04-20T12:53:46;97671.47;;;9.07;64.70
19751;BME280;4663;49.120;9.730;2023-04-20T12:56:12;97676.75;;;9.26;65.23
19751;BME280;4663;49.120;9.730;2023-04-20T12:58:37;97663.84;;;8.94;64.28
19751;BME280;4663;49.120;9.730;2023-04-20T13:01:02;97654.31;;;9.27;63.66
19751;BME280;4663;49.120;9.730;2023-04-20T13:03:28;97661.59;;;9.08;63.96
19751;BME280;4663;49.120;9.730;2023-04-20T13:05:53;97673.03;;;9.18;64.37
19751;BME280;4663;49.120;9.730;2023-04-20T13:08:18;97662.66;;;8.97;63.59
19751;BME280;4663;49.120;9.730;2023-04-20T13:10:45;97681.25;;;8.98;64.91
19751;BME280;4663;49.120;9.730;2023-04-20T13:13:10;97663.25;;;8.56;64.40
19751;BME280;4663;49.120;9.730;2023-04-20T13:15:36;97655.31;;;8.72;64.62
19751;BME280;4663;49.120;9.730;2023-04-20T13:18:02;97671.81;;;8.59;65.38